• Join FlightAware (Why Join?)
  • Login
  • US Flag 
12:10PM EDT


 

Airport Tracker/Info


-or-


 

Live Flight TrackerFlight Track Log ✈ DAL6197 ✈ 17-Apr-2013 ✈ KBUF - KLGA

Flight Track Log - Related Links

Times and Time Zones

All times are in EDT time to prevent confusion due to time zone crossing. See the DAL6197 flight status page for this flight to view local times or setup timezone preferences in your user account.

Time Position Orientation Groundspeed Altitude Reporting Facility
EDT Latitude Longitude Course Direction KTS MPH feet Rate Location/Type
11:14AM 42.9500 -78.7167 65° Northeast 150 173 1,600  Level Buffalo TRACON
11:15AM 42.9667 -78.6667 65° Northeast 188 216 2,900 1,920 Climbing Buffalo TRACON
11:16AM 42.9458 -78.6147 119° Southeast 263 303 4,900 2,460 Climbing Cleveland Center
11:17AM 42.8858 -78.5261 133° Southeast 277 319 7,600 2,580 Climbing Cleveland Center
11:18AM 42.8653 -78.4275 106° East 298 343 10,100 2,580 Climbing Cleveland Center
11:19AM 42.8608 -78.3058 93° East 304 350 12,900 2,100 Climbing Cleveland Center
11:20AM 42.8542 -78.1758 94° East 322 371 14,400 1,560 Climbing Cleveland Center
11:21AM 42.8467 -78.0203 94° East 363 418 16,100 1,680 Climbing Cleveland Center
11:22AM 42.8408 -77.8650 93° East 396 456 17,800 1,680 Climbing Cleveland Center
11:23AM 42.8328 -77.7011 94° East 414 476 19,500 1,680 Climbing Cleveland Center
11:24AM 42.8303 -77.5200 91° East 422 486 21,200 1,620 Climbing Cleveland Center
11:25AM 42.8275 -77.3472 91° East 434 499 22,800 1,440 Climbing Cleveland Center
11:26AM 42.8233 -77.0664 91° East 455 524 25,000 1,260 Climbing Boston Center
11:27AM 42.8222 -76.8850 90° East 472 543 26,100 900 Climbing Boston Center
11:29AM 42.8208 -76.6981 91° East 478 550 27,100 840 Climbing Boston Center
11:30AM 42.8083 -76.4678 94° East 498 573 28,000 420 Climbing Boston Center
11:31AM 42.7522 -76.2831 112° Southeast 503 579 28,000  Level Boston Center
11:32AM 42.7042 -76.1022 110° East 510 587 28,000  Level Boston Center
11:33AM 42.6514 -75.9183 111° Southeast 510 587 28,000  Level Boston Center
11:34AM 42.6008 -75.7319 110° East 516 594 28,000  Level Boston Center
11:35AM 42.5517 -75.5517 110° East 522 601 28,000 -480 Level Boston Center
11:36AM 42.5000 -75.3717 111° Southeast 516 594 27,100 -1,200 Descending Boston Center
11:37AM 42.4542 -75.2119 111° Southeast 516 594 25,600 -1,500 Descending Boston Center
11:38AM 42.3933 -75.0492 117° Southeast 500 575 24,100 -1,560 Descending Boston Center
11:39AM 42.3344 -74.8864 116° Southeast 483 556 22,600 -1,560 Descending Boston Center
11:40AM 42.2753 -74.7297 117° Southeast 469 540 21,100 -1,500 Descending Boston Center
11:41AM 42.2197 -74.5736 116° Southeast 464 534 19,600 -1,500 Descending Boston Center
11:42AM 42.1581 -74.4117 117° Southeast 452 520 18,100 -840 Descending Boston Center
11:43AM 42.1103 -74.2817 116° Southeast 441 507 18,000 -60 Descending Boston Center
11:44AM 42.0292 -74.1450 129° Southeast 431 496 18,000 -120 Level Boston Center
11:45AM 41.9200 -74.0500 147° Southeast 425 489 17,800 -1,140 Descending Boston Center
11:47AM 41.7283 -73.8811 147° Southeast 398 458 14,700 -1,560 Descending Boston Center
11:48AM 41.6458 -73.8292 155° Southeast 359 413 13,100 -1,260 Descending Boston Center
11:49AM 41.5000 -73.8667 191° South 283 326 11,300 -1,080 Descending New York TRACON
11:50AM 41.4333 -73.8667 180° South 300 345 10,300 -1,020 Descending New York TRACON
11:52AM 41.3333 -73.8000 153° Southeast 325 374 9,200 -960 Descending New York TRACON
11:52AM 41.2833 -73.7333 135° Southeast 316 364 8,400 -1,020 Descending New York TRACON
11:53AM 41.2167 -73.6833 151° Southeast 301 346 7,300 -1,320 Descending New York TRACON
11:54AM 41.1333 -73.6167 149° Southeast 304 350 5,800 -1,440 Descending New York TRACON
11:55AM 41.0667 -73.5833 159° South 293 337 4,500 -900 Descending New York TRACON
11:56AM 40.9833 -73.5833 180° South 257 296 4,000 -300 Descending New York TRACON
11:57AM 40.9167 -73.6000 191° South 273 314 4,000  Level New York TRACON
11:58AM 40.8500 -73.6333 201° Southwest 274 315 4,000  Level New York TRACON
11:59AM 40.8000 -73.7000 225° Southwest 267 307 4,100  Climbing New York TRACON
12:00PM 40.7833 -73.8000 258° West 258 297 4,000 -60 Descending New York TRACON
12:02PM 40.7833 -73.9000 270° West 260 299 4,000  Level New York TRACON
12:03PM 40.7667 -73.9833 255° West 209 241 4,000 -480 Level New York TRACON
12:04PM 40.7167 -74.0000 194° South 201 231 3,100 -600 Descending New York TRACON
12:05PM 40.6833 -73.9833 159° South 201 231 2,900 -300 Descending New York TRACON
12:05PM 40.7000 -73.9333 66° East 190 219 2,600 -540 Descending New York TRACON
12:06PM 40.7333 -73.8833 49° Northeast 173 199 1,900 -720 Descending New York TRACON
12:07PM 40.7500 -73.8333 66° East 134 154 1,200 -720 Descending New York TRACON